sensor_id;sensor_type;location;lat;lon;timestamp;P1;durP1;ratioP1;P2;durP2;ratioP2
31652;SDS011;18261;53.648;9.910;2023-09-19T00:01:33;12.55;;;2.15;;
31652;SDS011;18261;53.648;9.910;2023-09-19T00:03:59;4.53;;;1.70;;
31652;SDS011;18261;53.648;9.910;2023-09-19T00:06:28;8.18;;;2.17;;
31652;SDS011;18261;53.648;9.910;2023-09-19T00:08:56;6.85;;;1.90;;
31652;SDS011;18261;53.648;9.910;2023-09-19T00:11:23;8.93;;;1.85;;
31652;SDS011;18261;53.648;9.910;2023-09-19T00:13:51;5.68;;;1.92;;
31652;SDS011;18261;53.648;9.910;2023-09-19T00:16:17;11.57;;;2.20;;
31652;SDS011;18261;53.648;9.910;2023-09-19T00:18:44;10.65;;;2.17;;
31652;SDS011;18261;53.648;9.910;2023-09-19T00:21:10;8.35;;;2.15;;
31652;SDS011;18261;53.648;9.910;2023-09-19T00:23:36;6.78;;;2.63;;
31652;SDS011;18261;53.648;9.910;2023-09-19T00:26:02;11.02;;;2.78;;
31652;SDS011;18261;53.648;9.910;2023-09-19T00:28:28;11.25;;;2.53;;
31652;SDS011;18261;53.648;9.910;2023-09-19T00:30:55;10.30;;;2.22;;
31652;SDS011;18261;53.648;9.910;2023-09-19T00:33:21;10.88;;;2.25;;
31652;SDS011;18261;53.648;9.910;2023-09-19T00:35:51;9.45;;;2.33;;
31652;SDS011;18261;53.648;9.910;2023-09-19T00:38:21;8.48;;;2.58;;
31652;SDS011;18261;53.648;9.910;2023-09-19T00:40:52;7.20;;;2.35;;
31652;SDS011;18261;53.648;9.910;2023-09-19T00:43:18;8.30;;;2.30;;
31652;SDS011;18261;53.648;9.910;2023-09-19T00:45:44;13.05;;;2.70;;
31652;SDS011;18261;53.648;9.910;2023-09-19T00:48:11;11.18;;;2.72;;
31652;SDS011;18261;53.648;9.910;2023-09-19T00:50:37;8.88;;;2.63;;
31652;SDS011;18261;53.648;9.910;2023-09-19T00:53:06;7.40;;;2.60;;
31652;SDS011;18261;53.648;9.910;2023-09-19T00:55:33;9.95;;;3.03;;
31652;SDS011;18261;53.648;9.910;2023-09-19T00:57:59;10.90;;;2.83;;
31652;SDS011;18261;53.648;9.910;2023-09-19T01:00:26;6.28;;;2.90;;
31652;SDS011;18261;53.648;9.910;2023-09-19T01:02:52;7.25;;;2.63;;
31652;SDS011;18261;53.648;9.910;2023-09-19T01:05:18;10.15;;;2.53;;
31652;SDS011;18261;53.648;9.910;2023-09-19T01:07:44;9.63;;;2.70;;
31652;SDS011;18261;53.648;9.910;2023-09-19T01:10:11;12.10;;;2.88;;
31652;SDS011;18261;53.648;9.910;2023-09-19T01:16:02;9.57;;;2.90;;
31652;SDS011;18261;53.648;9.910;2023-09-19T01:17:57;12.32;;;3.10;;
31652;SDS011;18261;53.648;9.910;2023-09-19T01:30:48;12.48;;;3.13;;
31652;SDS011;18261;53.648;9.910;2023-09-19T01:33:19;13.43;;;3.13;;
31652;SDS011;18261;53.648;9.910;2023-09-19T01:35:45;12.65;;;3.08;;
31652;SDS011;18261;53.648;9.910;2023-09-19T01:38:12;8.38;;;3.38;;
31652;SDS011;18261;53.648;9.910;2023-09-19T01:40:43;10.38;;;3.25;;
31652;SDS011;18261;53.648;9.910;2023-09-19T01:43:16;10.23;;;2.92;;
31652;SDS011;18261;53.648;9.910;2023-09-19T01:45:52;10.77;;;3.03;;
31652;SDS011;18261;53.648;9.910;2023-09-19T01:53:24;10.52;;;3.17;;
31652;SDS011;18261;53.648;9.910;2023-09-19T01:55:55;10.20;;;2.67;;
31652;SDS011;18261;53.648;9.910;2023-09-19T01:58:39;8.25;;;2.80;;
31652;SDS011;18261;53.648;9.910;2023-09-19T02:01:08;9.05;;;2.80;;
31652;SDS011;18261;53.648;9.910;2023-09-19T02:03:38;13.25;;;2.80;;
31652;SDS011;18261;53.648;9.910;2023-09-19T02:06:04;5.90;;;2.60;;
31652;SDS011;18261;53.648;9.910;2023-09-19T02:08:36;9.88;;;2.40;;
31652;SDS011;18261;53.648;9.910;2023-09-19T02:11:02;7.85;;;2.65;;
31652;SDS011;18261;53.648;9.910;2023-09-19T02:13:28;10.20;;;2.72;;
31652;SDS011;18261;53.648;9.910;2023-09-19T02:15:56;12.00;;;2.60;;
31652;SDS011;18261;53.648;9.910;2023-09-19T02:18:22;14.68;;;2.38;;
31652;SDS011;18261;53.648;9.910;2023-09-19T02:20:49;9.05;;;2.55;;
31652;SDS011;18261;53.648;9.910;2023-09-19T02:23:16;9.57;;;2.72;;
31652;SDS011;18261;53.648;9.910;2023-09-19T02:25:42;18.00;;;2.75;;
31652;SDS011;18261;53.648;9.910;2023-09-19T02:28:08;12.07;;;2.72;;
31652;SDS011;18261;53.648;9.910;2023-09-19T02:30:35;10.98;;;2.80;;
31652;SDS011;18261;53.648;9.910;2023-09-19T02:33:01;11.32;;;3.65;;
31652;SDS011;18261;53.648;9.910;2023-09-19T02:35:28;12.57;;;3.25;;
31652;SDS011;18261;53.648;9.910;2023-09-19T02:38:00;9.27;;;2.92;;
31652;SDS011;18261;53.648;9.910;2023-09-19T02:40:27;9.63;;;3.47;;
31652;SDS011;18261;53.648;9.910;2023-09-19T02:42:54;11.82;;;3.55;;
31652;SDS011;18261;53.648;9.910;2023-09-19T02:45:20;15.98;;;3.80;;
31652;SDS011;18261;53.648;9.910;2023-09-19T02:47:48;13.30;;;4.40;;
31652;SDS011;18261;53.648;9.910;2023-09-19T02:50:15;21.25;;;8.77;;
31652;SDS011;18261;53.648;9.910;2023-09-19T02:52:41;9.38;;;2.83;;
31652;SDS011;18261;53.648;9.910;2023-09-19T02:55:13;10.52;;;3.08;;
31652;SDS011;18261;53.648;9.910;2023-09-19T02:57:46;14.10;;;3.40;;
31652;SDS011;18261;53.648;9.910;2023-09-19T03:00:12;13.10;;;3.65;;
31652;SDS011;18261;53.648;9.910;2023-09-19T03:02:38;10.85;;;3.13;;
31652;SDS011;18261;53.648;9.910;2023-09-19T03:05:06;15.40;;;3.40;;
31652;SDS011;18261;53.648;9.910;2023-09-19T03:07:32;17.67;;;3.42;;
31652;SDS011;18261;53.648;9.910;2023-09-19T03:09:59;14.98;;;2.85;;
31652;SDS011;18261;53.648;9.910;2023-09-19T03:12:26;15.30;;;3.97;;
31652;SDS011;18261;53.648;9.910;2023-09-19T03:14:52;10.63;;;2.75;;
31652;SDS011;18261;53.648;9.910;2023-09-19T03:17:18;7.78;;;2.80;;
31652;SDS011;18261;53.648;9.910;2023-09-19T03:19:45;11.23;;;2.90;;
31652;SDS011;18261;53.648;9.910;2023-09-19T03:22:21;15.57;;;3.10;;
31652;SDS011;18261;53.648;9.910;2023-09-19T03:24:47;14.35;;;2.88;;
31652;SDS011;18261;53.648;9.910;2023-09-19T03:27:13;9.15;;;2.72;;
31652;SDS011;18261;53.648;9.910;2023-09-19T03:29:40;11.75;;;2.65;;
31652;SDS011;18261;53.648;9.910;2023-09-19T03:32:07;14.88;;;3.25;;
31652;SDS011;18261;53.648;9.910;2023-09-19T03:34:35;13.18;;;2.90;;
31652;SDS011;18261;53.648;9.910;2023-09-19T03:37:03;15.75;;;3.03;;
31652;SDS011;18261;53.648;9.910;2023-09-19T03:39:29;18.08;;;2.78;;
31652;SDS011;18261;53.648;9.910;2023-09-19T03:41:55;17.17;;;2.92;;
31652;SDS011;18261;53.648;9.910;2023-09-19T03:44:21;14.40;;;3.00;;
31652;SDS011;18261;53.648;9.910;2023-09-19T03:46:47;18.25;;;3.00;;
31652;SDS011;18261;53.648;9.910;2023-09-19T03:49:13;9.98;;;2.53;;
31652;SDS011;18261;53.648;9.910;2023-09-19T03:51:39;12.82;;;3.00;;
31652;SDS011;18261;53.648;9.910;2023-09-19T03:54:06;11.90;;;3.33;;
31652;SDS011;18261;53.648;9.910;2023-09-19T03:56:32;12.40;;;2.80;;
31652;SDS011;18261;53.648;9.910;2023-09-19T03:58:58;12.43;;;2.97;;
31652;SDS011;18261;53.648;9.910;2023-09-19T04:01:24;11.95;;;2.70;;
31652;SDS011;18261;53.648;9.910;2023-09-19T04:03:52;14.35;;;3.00;;
31652;SDS011;18261;53.648;9.910;2023-09-19T04:06:19;13.80;;;2.80;;
31652;SDS011;18261;53.648;9.910;2023-09-19T04:08:45;19.10;;;3.67;;
31652;SDS011;18261;53.648;9.910;2023-09-19T04:11:12;15.68;;;3.15;;
31652;SDS011;18261;53.648;9.910;2023-09-19T04:13:38;11.50;;;2.58;;
31652;SDS011;18261;53.648;9.910;2023-09-19T04:16:05;17.20;;;3.67;;
31652;SDS011;18261;53.648;9.910;2023-09-19T04:18:32;16.95;;;2.95;;
31652;SDS011;18261;53.648;9.910;2023-09-19T04:21:02;16.55;;;3.72;;
31652;SDS011;18261;53.648;9.910;2023-09-19T04:23:29;9.07;;;2.92;;
31652;SDS011;18261;53.648;9.910;2023-09-19T04:25:55;12.75;;;3.00;;
31652;SDS011;18261;53.648;9.910;2023-09-19T04:28:22;15.27;;;2.95;;
31652;SDS011;18261;53.648;9.910;2023-09-19T04:30:49;11.60;;;3.00;;
31652;SDS011;18261;53.648;9.910;2023-09-19T04:33:15;14.68;;;3.03;;
31652;SDS011;18261;53.648;9.910;2023-09-19T04:35:41;14.07;;;2.55;;
31652;SDS011;18261;53.648;9.910;2023-09-19T04:38:10;13.48;;;2.92;;
31652;SDS011;18261;53.648;9.910;2023-09-19T04:40:36;18.95;;;3.63;;
31652;SDS011;18261;53.648;9.910;2023-09-19T04:43:04;11.18;;;2.65;;
31652;SDS011;18261;53.648;9.910;2023-09-19T04:45:31;16.70;;;3.22;;
31652;SDS011;18261;53.648;9.910;2023-09-19T04:47:57;15.90;;;2.95;;
31652;SDS011;18261;53.648;9.910;2023-09-19T04:50:23;21.17;;;3.22;;
31652;SDS011;18261;53.648;9.910;2023-09-19T04:52:52;18.92;;;2.70;;
31652;SDS011;18261;53.648;9.910;2023-09-19T04:55:19;21.13;;;4.00;;
31652;SDS011;18261;53.648;9.910;2023-09-19T04:57:51;19.08;;;3.28;;
31652;SDS011;18261;53.648;9.910;2023-09-19T05:00:20;19.02;;;4.05;;
31652;SDS011;18261;53.648;9.910;2023-09-19T05:02:54;17.05;;;3.17;;
31652;SDS011;18261;53.648;9.910;2023-09-19T05:05:21;21.58;;;4.72;;
31652;SDS011;18261;53.648;9.910;2023-09-19T05:07:48;11.07;;;2.83;;
31652;SDS011;18261;53.648;9.910;2023-09-19T05:10:14;11.88;;;2.85;;
31652;SDS011;18261;53.648;9.910;2023-09-19T05:12:44;17.25;;;2.78;;
31652;SDS011;18261;53.648;9.910;2023-09-19T05:15:12;18.42;;;3.63;;
31652;SDS011;18261;53.648;9.910;2023-09-19T05:17:42;23.58;;;3.53;;
31652;SDS011;18261;53.648;9.910;2023-09-19T05:20:08;11.93;;;2.67;;
31652;SDS011;18261;53.648;9.910;2023-09-19T05:22:50;17.83;;;2.58;;
31652;SDS011;18261;53.648;9.910;2023-09-19T05:25:16;14.13;;;3.38;;
31652;SDS011;18261;53.648;9.910;2023-09-19T05:27:43;17.27;;;2.70;;
31652;SDS011;18261;53.648;9.910;2023-09-19T05:30:09;18.40;;;4.00;;
31652;SDS011;18261;53.648;9.910;2023-09-19T05:32:35;13.88;;;3.10;;
31652;SDS011;18261;53.648;9.910;2023-09-19T05:35:01;14.60;;;3.03;;
31652;SDS011;18261;53.648;9.910;2023-09-19T05:37:28;14.52;;;2.65;;
31652;SDS011;18261;53.648;9.910;2023-09-19T05:39:54;13.80;;;2.90;;
31652;SDS011;18261;53.648;9.910;2023-09-19T05:42:20;13.00;;;4.07;;
31652;SDS011;18261;53.648;9.910;2023-09-19T05:44:46;18.25;;;3.53;;
31652;SDS011;18261;53.648;9.910;2023-09-19T05:47:12;19.38;;;3.00;;
31652;SDS011;18261;53.648;9.910;2023-09-19T05:49:38;16.42;;;2.88;;
31652;SDS011;18261;53.648;9.910;2023-09-19T05:52:07;17.13;;;3.28;;
31652;SDS011;18261;53.648;9.910;2023-09-19T05:54:33;20.52;;;2.90;;
31652;SDS011;18261;53.648;9.910;2023-09-19T05:57:00;20.40;;;3.13;;
31652;SDS011;18261;53.648;9.910;2023-09-19T05:59:26;27.45;;;3.35;;
31652;SDS011;18261;53.648;9.910;2023-09-19T06:01:52;18.85;;;3.80;;
31652;SDS011;18261;53.648;9.910;2023-09-19T06:04:18;16.58;;;2.75;;
31652;SDS011;18261;53.648;9.910;2023-09-19T06:06:45;16.73;;;3.50;;
31652;SDS011;18261;53.648;9.910;2023-09-19T06:09:12;23.83;;;2.83;;
31652;SDS011;18261;53.648;9.910;2023-09-19T06:11:38;19.92;;;2.70;;
31652;SDS011;18261;53.648;9.910;2023-09-19T06:14:05;15.00;;;2.58;;
31652;SDS011;18261;53.648;9.910;2023-09-19T06:16:31;18.02;;;4.65;;
31652;SDS011;18261;53.648;9.910;2023-09-19T06:18:57;20.25;;;3.38;;
31652;SDS011;18261;53.648;9.910;2023-09-19T06:21:27;11.88;;;3.40;;
31652;SDS011;18261;53.648;9.910;2023-09-19T06:23:53;16.40;;;3.20;;
31652;SDS011;18261;53.648;9.910;2023-09-19T06:26:20;21.55;;;3.47;;
31652;SDS011;18261;53.648;9.910;2023-09-19T06:28:46;24.17;;;3.53;;
31652;SDS011;18261;53.648;9.910;2023-09-19T06:31:12;12.70;;;2.58;;
31652;SDS011;18261;53.648;9.910;2023-09-19T06:33:38;23.05;;;3.50;;
31652;SDS011;18261;53.648;9.910;2023-09-19T06:36:07;20.10;;;3.55;;
31652;SDS011;18261;53.648;9.910;2023-09-19T06:38:33;18.35;;;3.25;;
31652;SDS011;18261;53.648;9.910;2023-09-19T06:41:01;14.45;;;3.00;;
31652;SDS011;18261;53.648;9.910;2023-09-19T06:43:29;21.65;;;3.00;;
31652;SDS011;18261;53.648;9.910;2023-09-19T06:45:55;23.65;;;5.43;;
31652;SDS011;18261;53.648;9.910;2023-09-19T06:48:22;23.00;;;3.67;;
31652;SDS011;18261;53.648;9.910;2023-09-19T06:50:55;22.08;;;3.00;;
31652;SDS011;18261;53.648;9.910;2023-09-19T06:53:21;24.65;;;3.72;;
31652;SDS011;18261;53.648;9.910;2023-09-19T06:55:48;18.23;;;3.13;;
31652;SDS011;18261;53.648;9.910;2023-09-19T06:58:14;17.55;;;3.55;;
31652;SDS011;18261;53.648;9.910;2023-09-19T07:00:41;24.70;;;4.03;;
31652;SDS011;18261;53.648;9.910;2023-09-19T07:03:08;13.77;;;2.80;;
31652;SDS011;18261;53.648;9.910;2023-09-19T07:05:36;21.02;;;4.25;;
31652;SDS011;18261;53.648;9.910;2023-09-19T07:08:04;21.05;;;3.75;;
31652;SDS011;18261;53.648;9.910;2023-09-19T07:10:31;18.17;;;3.22;;
31652;SDS011;18261;53.648;9.910;2023-09-19T07:13:00;16.00;;;3.38;;
31652;SDS011;18261;53.648;9.910;2023-09-19T07:15:28;15.95;;;3.50;;
31652;SDS011;18261;53.648;9.910;2023-09-19T07:17:55;21.38;;;3.88;;
31652;SDS011;18261;53.648;9.910;2023-09-19T07:20:22;20.25;;;4.00;;
31652;SDS011;18261;53.648;9.910;2023-09-19T07:22:51;17.60;;;3.22;;
31652;SDS011;18261;53.648;9.910;2023-09-19T07:25:19;15.95;;;3.78;;
31652;SDS011;18261;53.648;9.910;2023-09-19T07:27:45;26.60;;;3.70;;
31652;SDS011;18261;53.648;9.910;2023-09-19T07:30:11;17.42;;;3.47;;
31652;SDS011;18261;53.648;9.910;2023-09-19T07:32:38;15.88;;;3.75;;
31652;SDS011;18261;53.648;9.910;2023-09-19T07:35:05;22.42;;;3.70;;
31652;SDS011;18261;53.648;9.910;2023-09-19T07:37:32;17.60;;;3.33;;
31652;SDS011;18261;53.648;9.910;2023-09-19T07:40:01;18.73;;;3.72;;
31652;SDS011;18261;53.648;9.910;2023-09-19T07:42:34;20.50;;;3.60;;
31652;SDS011;18261;53.648;9.910;2023-09-19T07:45:02;20.92;;;3.80;;
31652;SDS011;18261;53.648;9.910;2023-09-19T07:47:28;21.80;;;3.90;;
31652;SDS011;18261;53.648;9.910;2023-09-19T07:49:55;15.90;;;3.38;;
31652;SDS011;18261;53.648;9.910;2023-09-19T07:52:21;22.17;;;3.97;;
31652;SDS011;18261;53.648;9.910;2023-09-19T07:54:47;20.73;;;3.65;;
31652;SDS011;18261;53.648;9.910;2023-09-19T07:57:14;21.17;;;3.20;;
31652;SDS011;18261;53.648;9.910;2023-09-19T07:59:41;18.77;;;3.63;;
31652;SDS011;18261;53.648;9.910;2023-09-19T08:02:07;15.05;;;3.13;;
31652;SDS011;18261;53.648;9.910;2023-09-19T08:04:34;20.98;;;3.45;;
31652;SDS011;18261;53.648;9.910;2023-09-19T08:07:01;16.75;;;3.15;;
31652;SDS011;18261;53.648;9.910;2023-09-19T08:09:28;18.65;;;3.20;;
31652;SDS011;18261;53.648;9.910;2023-09-19T08:11:58;16.75;;;3.47;;
31652;SDS011;18261;53.648;9.910;2023-09-19T08:14:27;13.32;;;2.97;;
31652;SDS011;18261;53.648;9.910;2023-09-19T08:16:57;18.23;;;3.47;;
31652;SDS011;18261;53.648;9.910;2023-09-19T08:19:24;11.85;;;3.58;;
31652;SDS011;18261;53.648;9.910;2023-09-19T08:21:56;14.68;;;3.45;;
31652;SDS011;18261;53.648;9.910;2023-09-19T08:24:26;16.85;;;3.50;;
31652;SDS011;18261;53.648;9.910;2023-09-19T08:26:53;16.80;;;3.20;;
31652;SDS011;18261;53.648;9.910;2023-09-19T08:29:19;20.42;;;3.38;;
31652;SDS011;18261;53.648;9.910;2023-09-19T08:31:45;19.27;;;3.38;;
31652;SDS011;18261;53.648;9.910;2023-09-19T08:34:14;21.52;;;3.90;;
31652;SDS011;18261;53.648;9.910;2023-09-19T08:36:40;17.67;;;3.85;;
31652;SDS011;18261;53.648;9.910;2023-09-19T08:39:09;23.02;;;4.03;;
31652;SDS011;18261;53.648;9.910;2023-09-19T08:41:36;28.48;;;4.68;;
31652;SDS011;18261;53.648;9.910;2023-09-19T08:44:02;20.98;;;3.85;;
31652;SDS011;18261;53.648;9.910;2023-09-19T08:46:29;20.58;;;3.58;;
31652;SDS011;18261;53.648;9.910;2023-09-19T08:49:03;22.48;;;3.97;;
31652;SDS011;18261;53.648;9.910;2023-09-19T08:51:32;26.87;;;4.17;;
31652;SDS011;18261;53.648;9.910;2023-09-19T08:56:31;25.08;;;4.32;;
31652;SDS011;18261;53.648;9.910;2023-09-19T08:59:02;24.52;;;4.20;;
31652;SDS011;18261;53.648;9.910;2023-09-19T09:01:29;18.52;;;3.60;;
31652;SDS011;18261;53.648;9.910;2023-09-19T09:03:57;22.00;;;3.70;;
31652;SDS011;18261;53.648;9.910;2023-09-19T09:06:23;22.70;;;3.78;;
31652;SDS011;18261;53.648;9.910;2023-09-19T09:08:52;21.00;;;3.88;;
31652;SDS011;18261;53.648;9.910;2023-09-19T09:11:19;19.13;;;3.67;;
31652;SDS011;18261;53.648;9.910;2023-09-19T09:13:45;24.33;;;4.20;;
31652;SDS011;18261;53.648;9.910;2023-09-19T09:16:11;20.55;;;3.95;;
31652;SDS011;18261;53.648;9.910;2023-09-19T09:18:38;20.40;;;3.40;;
31652;SDS011;18261;53.648;9.910;2023-09-19T09:21:04;32.45;;;5.00;;
31652;SDS011;18261;53.648;9.910;2023-09-19T09:23:31;29.50;;;4.15;;
31652;SDS011;18261;53.648;9.910;2023-09-19T09:25:57;23.60;;;4.00;;
31652;SDS011;18261;53.648;9.910;2023-09-19T09:28:28;20.80;;;3.80;;
31652;SDS011;18261;53.648;9.910;2023-09-19T09:30:55;25.00;;;5.55;;
31652;SDS011;18261;53.648;9.910;2023-09-19T09:33:23;24.98;;;4.13;;
31652;SDS011;18261;53.648;9.910;2023-09-19T09:35:59;23.10;;;4.00;;
31652;SDS011;18261;53.648;9.910;2023-09-19T09:38:26;23.52;;;4.47;;
31652;SDS011;18261;53.648;9.910;2023-09-19T09:40:53;27.63;;;4.07;;
31652;SDS011;18261;53.648;9.910;2023-09-19T09:43:26;16.27;;;3.60;;
31652;SDS011;18261;53.648;9.910;2023-09-19T09:48:47;21.38;;;4.18;;
31652;SDS011;18261;53.648;9.910;2023-09-19T09:51:36;17.55;;;3.15;;
31652;SDS011;18261;53.648;9.910;2023-09-19T09:54:10;16.77;;;3.42;;
31652;SDS011;18261;53.648;9.910;2023-09-19T09:56:53;17.30;;;3.85;;
31652;SDS011;18261;53.648;9.910;2023-09-19T09:59:20;20.02;;;3.60;;
31652;SDS011;18261;53.648;9.910;2023-09-19T10:01:49;21.02;;;3.65;;
31652;SDS011;18261;53.648;9.910;2023-09-19T10:04:36;18.30;;;3.25;;
31652;SDS011;18261;53.648;9.910;2023-09-19T10:07:09;20.63;;;3.67;;
31652;SDS011;18261;53.648;9.910;2023-09-19T10:09:45;22.27;;;3.40;;
31652;SDS011;18261;53.648;9.910;2023-09-19T10:12:16;20.08;;;3.78;;
31652;SDS011;18261;53.648;9.910;2023-09-19T10:14:42;16.50;;;3.40;;
31652;SDS011;18261;53.648;9.910;2023-09-19T10:17:12;19.90;;;3.55;;
31652;SDS011;18261;53.648;9.910;2023-09-19T10:19:52;21.83;;;4.10;;
31652;SDS011;18261;53.648;9.910;2023-09-19T10:22:22;16.73;;;4.18;;
31652;SDS011;18261;53.648;9.910;2023-09-19T10:24:49;13.90;;;3.72;;
31652;SDS011;18261;53.648;9.910;2023-09-19T10:27:18;18.65;;;3.33;;
31652;SDS011;18261;53.648;9.910;2023-09-19T10:29:48;20.73;;;3.25;;
31652;SDS011;18261;53.648;9.910;2023-09-19T10:32:22;19.55;;;3.30;;
31652;SDS011;18261;53.648;9.910;2023-09-19T10:34:48;16.98;;;3.83;;
31652;SDS011;18261;53.648;9.910;2023-09-19T10:37:17;21.73;;;3.47;;
31652;SDS011;18261;53.648;9.910;2023-09-19T10:39:46;19.60;;;3.60;;
31652;SDS011;18261;53.648;9.910;2023-09-19T10:42:14;17.23;;;3.38;;
31652;SDS011;18261;53.648;9.910;2023-09-19T10:44:43;13.68;;;3.20;;
31652;SDS011;18261;53.648;9.910;2023-09-19T10:47:11;13.52;;;3.67;;
31652;SDS011;18261;53.648;9.910;2023-09-19T10:49:44;18.85;;;3.60;;
31652;SDS011;18261;53.648;9.910;2023-09-19T10:52:14;14.77;;;2.92;;
31652;SDS011;18261;53.648;9.910;2023-09-19T10:54:45;15.00;;;4.05;;
31652;SDS011;18261;53.648;9.910;2023-09-19T10:57:13;11.95;;;3.03;;
31652;SDS011;18261;53.648;9.910;2023-09-19T11:00:00;16.33;;;3.03;;
31652;SDS011;18261;53.648;9.910;2023-09-19T11:02:27;17.23;;;3.70;;
31652;SDS011;18261;53.648;9.910;2023-09-19T11:04:53;17.55;;;3.30;;
31652;SDS011;18261;53.648;9.910;2023-09-19T11:07:21;13.43;;;3.30;;
31652;SDS011;18261;53.648;9.910;2023-09-19T11:09:54;18.58;;;3.08;;
31652;SDS011;18261;53.648;9.910;2023-09-19T11:15:08;20.77;;;3.78;;
31652;SDS011;18261;53.648;9.910;2023-09-19T11:17:37;25.40;;;3.65;;
31652;SDS011;18261;53.648;9.910;2023-09-19T11:33:16;18.90;;;3.20;;
31652;SDS011;18261;53.648;9.910;2023-09-19T11:36:19;19.20;;;3.97;;
31652;SDS011;18261;53.648;9.910;2023-09-19T11:41:52;16.38;;;3.15;;
31652;SDS011;18261;53.648;9.910;2023-09-19T11:46:29;14.18;;;2.97;;
31652;SDS011;18261;53.648;9.910;2023-09-19T11:49:04;17.85;;;3.20;;
31652;SDS011;18261;53.648;9.910;2023-09-19T11:51:37;17.75;;;2.97;;
31652;SDS011;18261;53.648;9.910;2023-09-19T11:54:10;17.42;;;3.55;;
31652;SDS011;18261;53.648;9.910;2023-09-19T11:56:42;16.92;;;3.25;;
31652;SDS011;18261;53.648;9.910;2023-09-19T11:59:09;17.23;;;3.58;;
31652;SDS011;18261;53.648;9.910;2023-09-19T12:01:35;18.42;;;3.47;;
31652;SDS011;18261;53.648;9.910;2023-09-19T12:04:05;15.98;;;3.50;;
31652;SDS011;18261;53.648;9.910;2023-09-19T12:06:33;14.55;;;3.55;;
31652;SDS011;18261;53.648;9.910;2023-09-19T12:09:01;18.25;;;3.38;;
31652;SDS011;18261;53.648;9.910;2023-09-19T12:11:32;10.57;;;3.00;;
31652;SDS011;18261;53.648;9.910;2023-09-19T12:13:58;20.02;;;4.10;;
31652;SDS011;18261;53.648;9.910;2023-09-19T12:16:26;16.00;;;3.15;;
31652;SDS011;18261;53.648;9.910;2023-09-19T12:18:55;12.75;;;3.40;;
31652;SDS011;18261;53.648;9.910;2023-09-19T12:21:26;21.25;;;3.80;;
31652;SDS011;18261;53.648;9.910;2023-09-19T12:26:37;18.52;;;3.88;;
31652;SDS011;18261;53.648;9.910;2023-09-19T12:29:04;18.90;;;3.80;;
31652;SDS011;18261;53.648;9.910;2023-09-19T12:31:30;18.92;;;3.83;;
31652;SDS011;18261;53.648;9.910;2023-09-19T12:34:02;18.85;;;4.78;;
31652;SDS011;18261;53.648;9.910;2023-09-19T12:36:28;16.27;;;3.88;;
31652;SDS011;18261;53.648;9.910;2023-09-19T12:38:55;18.20;;;3.47;;
31652;SDS011;18261;53.648;9.910;2023-09-19T12:41:23;15.55;;;3.95;;
31652;SDS011;18261;53.648;9.910;2023-09-19T12:43:50;18.10;;;3.55;;
31652;SDS011;18261;53.648;9.910;2023-09-19T12:46:19;25.20;;;4.60;;
31652;SDS011;18261;53.648;9.910;2023-09-19T12:48:50;13.75;;;3.30;;
31652;SDS011;18261;53.648;9.910;2023-09-19T12:51:38;12.13;;;3.25;;
31652;SDS011;18261;53.648;9.910;2023-09-19T12:54:04;14.43;;;3.28;;
31652;SDS011;18261;53.648;9.910;2023-09-19T12:56:30;16.70;;;3.90;;
31652;SDS011;18261;53.648;9.910;2023-09-19T12:59:06;21.27;;;4.03;;
31652;SDS011;18261;53.648;9.910;2023-09-19T13:01:37;18.33;;;4.00;;
31652;SDS011;18261;53.648;9.910;2023-09-19T13:06:58;18.38;;;3.58;;
31652;SDS011;18261;53.648;9.910;2023-09-19T13:09:26;19.85;;;4.50;;
31652;SDS011;18261;53.648;9.910;2023-09-19T13:15:12;15.32;;;3.45;;
31652;SDS011;18261;53.648;9.910;2023-09-19T13:17:44;19.73;;;3.63;;
31652;SDS011;18261;53.648;9.910;2023-09-19T13:20:22;16.10;;;3.75;;
31652;SDS011;18261;53.648;9.910;2023-09-19T13:22:57;13.95;;;3.75;;
31652;SDS011;18261;53.648;9.910;2023-09-19T13:25:25;18.25;;;4.05;;
31652;SDS011;18261;53.648;9.910;2023-09-19T13:27:54;15.75;;;3.85;;
31652;SDS011;18261;53.648;9.910;2023-09-19T13:30:21;12.23;;;3.20;;
31652;SDS011;18261;53.648;9.910;2023-09-19T13:32:47;13.98;;;3.70;;
31652;SDS011;18261;53.648;9.910;2023-09-19T13:35:14;15.07;;;3.95;;
31652;SDS011;18261;53.648;9.910;2023-09-19T13:37:40;18.50;;;3.92;;
31652;SDS011;18261;53.648;9.910;2023-09-19T13:40:10;13.25;;;3.35;;
31652;SDS011;18261;53.648;9.910;2023-09-19T13:42:37;15.60;;;3.42;;
31652;SDS011;18261;53.648;9.910;2023-09-19T13:45:03;17.55;;;3.88;;
31652;SDS011;18261;53.648;9.910;2023-09-19T13:47:32;11.63;;;3.30;;
31652;SDS011;18261;53.648;9.910;2023-09-19T13:49:59;16.40;;;3.08;;
31652;SDS011;18261;53.648;9.910;2023-09-19T13:52:25;16.05;;;3.20;;
31652;SDS011;18261;53.648;9.910;2023-09-19T13:54:53;14.40;;;4.18;;
31652;SDS011;18261;53.648;9.910;2023-09-19T13:57:22;13.27;;;3.70;;
31652;SDS011;18261;53.648;9.910;2023-09-19T13:59:48;17.77;;;3.70;;
31652;SDS011;18261;53.648;9.910;2023-09-19T14:02:14;18.73;;;3.38;;
31652;SDS011;18261;53.648;9.910;2023-09-19T14:04:43;17.45;;;3.25;;
31652;SDS011;18261;53.648;9.910;2023-09-19T14:07:09;23.45;;;3.67;;
31652;SDS011;18261;53.648;9.910;2023-09-19T14:09:36;16.05;;;3.47;;
31652;SDS011;18261;53.648;9.910;2023-09-19T14:12:02;18.02;;;3.42;;
31652;SDS011;18261;53.648;9.910;2023-09-19T14:14:28;17.33;;;3.22;;
31652;SDS011;18261;53.648;9.910;2023-09-19T14:16:54;14.80;;;3.28;;
31652;SDS011;18261;53.648;9.910;2023-09-19T14:19:21;9.05;;;3.05;;
31652;SDS011;18261;53.648;9.910;2023-09-19T14:21:47;13.93;;;3.63;;
31652;SDS011;18261;53.648;9.910;2023-09-19T14:24:19;10.25;;;2.80;;
31652;SDS011;18261;53.648;9.910;2023-09-19T14:26:45;16.02;;;3.10;;
31652;SDS011;18261;53.648;9.910;2023-09-19T14:29:11;17.13;;;3.78;;
31652;SDS011;18261;53.648;9.910;2023-09-19T14:31:38;15.82;;;3.55;;
31652;SDS011;18261;53.648;9.910;2023-09-19T14:34:05;14.88;;;3.22;;
31652;SDS011;18261;53.648;9.910;2023-09-19T14:36:31;15.32;;;3.67;;
31652;SDS011;18261;53.648;9.910;2023-09-19T14:38:58;15.52;;;3.80;;
31652;SDS011;18261;53.648;9.910;2023-09-19T14:41:24;16.48;;;3.78;;
31652;SDS011;18261;53.648;9.910;2023-09-19T14:43:51;15.82;;;3.25;;
31652;SDS011;18261;53.648;9.910;2023-09-19T14:46:17;15.20;;;3.78;;
31652;SDS011;18261;53.648;9.910;2023-09-19T14:48:44;16.58;;;3.45;;
31652;SDS011;18261;53.648;9.910;2023-09-19T14:51:12;13.57;;;3.53;;
31652;SDS011;18261;53.648;9.910;2023-09-19T14:53:38;18.00;;;3.30;;
31652;SDS011;18261;53.648;9.910;2023-09-19T14:56:05;16.52;;;3.50;;
31652;SDS011;18261;53.648;9.910;2023-09-19T14:58:32;19.23;;;4.20;;
31652;SDS011;18261;53.648;9.910;2023-09-19T15:01:05;21.15;;;3.80;;
31652;SDS011;18261;53.648;9.910;2023-09-19T15:03:32;18.90;;;4.05;;
31652;SDS011;18261;53.648;9.910;2023-09-19T15:06:01;22.88;;;3.92;;
31652;SDS011;18261;53.648;9.910;2023-09-19T15:08:29;26.67;;;4.35;;
31652;SDS011;18261;53.648;9.910;2023-09-19T15:10:55;29.80;;;4.50;;
31652;SDS011;18261;53.648;9.910;2023-09-19T15:13:23;21.92;;;3.53;;
31652;SDS011;18261;53.648;9.910;2023-09-19T15:15:57;19.90;;;3.83;;
31652;SDS011;18261;53.648;9.910;2023-09-19T15:18:23;19.65;;;3.85;;
31652;SDS011;18261;53.648;9.910;2023-09-19T15:20:49;15.77;;;3.50;;
31652;SDS011;18261;53.648;9.910;2023-09-19T15:23:15;22.80;;;3.85;;
31652;SDS011;18261;53.648;9.910;2023-09-19T15:25:49;16.70;;;4.10;;
31652;SDS011;18261;53.648;9.910;2023-09-19T15:28:15;25.27;;;3.72;;
31652;SDS011;18261;53.648;9.910;2023-09-19T15:30:41;19.50;;;3.33;;
31652;SDS011;18261;53.648;9.910;2023-09-19T15:33:07;21.08;;;3.08;;
31652;SDS011;18261;53.648;9.910;2023-09-19T15:35:33;16.10;;;3.67;;